createdAt,value
2023-04-28T00:00:00.555Z,62.30
2023-04-28T00:01:00.562Z,62.30
2023-04-28T00:02:00.558Z,62.30
2023-04-28T00:03:00.742Z,63.02
2023-04-28T00:04:00.727Z,63.43
2023-04-28T00:05:00.584Z,62.92
2023-04-28T00:06:00.712Z,62.51
2023-04-28T00:07:00.582Z,62.51
2023-04-28T00:08:00.550Z,62.71
2023-04-28T00:09:00.477Z,63.12
2023-04-28T00:10:00.484Z,63.53
2023-04-28T00:11:00.449Z,62.92
2023-04-28T00:12:00.445Z,62.92
2023-04-28T00:13:00.428Z,62.81
2023-04-28T00:14:00.427Z,63.02
2023-04-28T00:15:00.406Z,62.81
2023-04-28T00:16:00.462Z,62.92
2023-04-28T00:17:00.385Z,62.60
2023-04-28T00:18:00.478Z,62.30
2023-04-28T00:19:00.435Z,62.71
2023-04-28T00:20:00.406Z,62.40
2023-04-28T00:21:00.356Z,63.22
2023-04-28T00:22:00.384Z,64.04
2023-04-28T00:23:00.390Z,63.32
2023-04-28T00:24:00.324Z,62.92
2023-04-28T00:25:00.326Z,62.81
2023-04-28T00:26:00.320Z,62.53
2023-04-28T00:27:00.404Z,63.02
2023-04-28T00:28:00.319Z,63.84
2023-04-28T00:29:00.389Z,63.94
2023-04-28T00:30:00.267Z,63.76
2023-04-28T00:31:00.274Z,64.18
2023-04-28T00:32:00.416Z,63.97
2023-04-28T00:33:00.430Z,63.05
2023-04-28T00:34:00.261Z,62.95
2023-04-28T00:35:00.210Z,63.35
2023-04-28T00:36:00.250Z,64.90
2023-04-28T00:37:00.395Z,63.76
2023-04-28T00:38:00.197Z,63.15
2023-04-28T00:39:00.617Z,63.56
2023-04-28T00:40:00.294Z,63.76
2023-04-28T00:41:00.240Z,63.46
2023-04-28T00:42:00.143Z,63.46
2023-04-28T00:43:00.190Z,63.25
2023-04-28T00:44:00.156Z,64.28
2023-04-28T00:45:00.236Z,63.76
2023-04-28T00:46:00.195Z,63.76
2023-04-28T00:47:00.156Z,63.56
2023-04-28T00:48:00.242Z,64.39
2023-04-28T00:49:00.320Z,64.59
2023-04-28T00:50:00.153Z,64.69
2023-04-28T00:51:00.267Z,64.59
2023-04-28T00:52:00.060Z,64.18
2023-04-28T00:53:00.275Z,64.48
2023-04-28T00:54:00.140Z,65.00
2023-04-28T00:55:00.026Z,64.79
2023-04-28T00:56:00.049Z,64.90
2023-04-28T00:56:59.982Z,64.18
2023-04-28T00:58:00.093Z,64.39
2023-04-28T00:59:00.640Z,63.46
2023-04-28T01:00:00.060Z,63.97
2023-04-28T01:01:00.013Z,64.18
2023-04-28T01:02:00.261Z,64.69
2023-04-28T01:03:00.156Z,64.07
2023-04-28T01:04:00.038Z,64.28
2023-04-28T01:04:59.953Z,64.48
2023-04-28T01:05:59.915Z,64.39
2023-04-28T01:06:59.876Z,65.11
2023-04-28T01:07:59.915Z,64.90
2023-04-28T01:08:59.828Z,64.59
2023-04-28T01:09:59.990Z,64.69
2023-04-28T01:10:59.853Z,64.59
2023-04-28T01:11:59.878Z,64.79
2023-04-28T01:12:59.886Z,65.20
2023-04-28T01:13:59.819Z,65.20
2023-04-28T01:14:59.778Z,65.41
2023-04-28T01:15:59.784Z,64.39
2023-04-28T01:16:59.846Z,65.00
2023-04-28T01:17:59.792Z,65.62
2023-04-28T01:18:59.723Z,65.11
2023-04-28T01:19:59.755Z,65.11
2023-04-28T01:20:59.725Z,65.41
2023-04-28T01:21:59.809Z,64.59
2023-04-28T01:22:59.693Z,64.39
2023-04-28T01:23:59.793Z,64.59
2023-04-28T01:24:59.662Z,64.18
2023-04-28T01:25:59.665Z,64.90
2023-04-28T01:26:59.668Z,64.28
2023-04-28T01:27:59.662Z,64.39
2023-04-28T01:28:59.626Z,64.59
2023-04-28T01:29:59.630Z,64.90
2023-04-28T01:30:59.674Z,64.48
2023-04-28T01:31:59.770Z,64.59
2023-04-28T01:32:59.806Z,64.79
2023-04-28T01:33:59.585Z,64.69
2023-04-28T01:34:59.559Z,65.20
2023-04-28T01:35:59.593Z,64.90
2023-04-28T01:36:59.538Z,64.69
2023-04-28T01:37:59.552Z,64.90
2023-04-28T01:38:59.531Z,65.31
2023-04-28T01:39:59.508Z,64.69
2023-04-28T01:40:59.513Z,65.00
2023-04-28T01:41:59.510Z,65.41
2023-04-28T01:42:59.474Z,64.90
2023-04-28T01:43:59.469Z,65.00
2023-04-28T01:44:59.449Z,64.79
2023-04-28T01:45:59.563Z,65.31
2023-04-28T01:46:59.451Z,65.20
2023-04-28T01:47:59.456Z,64.69
2023-04-28T01:48:59.417Z,65.00
2023-04-28T01:49:59.420Z,65.00
2023-04-28T01:50:59.458Z,65.11
2023-04-28T01:51:59.429Z,65.00
2023-04-28T01:52:59.377Z,65.92
2023-04-28T01:53:59.363Z,65.62
2023-04-28T01:54:59.342Z,65.62
2023-04-28T01:55:59.357Z,65.31
2023-04-28T01:56:59.356Z,65.62
2023-04-28T01:57:59.339Z,66.44
2023-04-28T01:58:59.317Z,66.03
2023-04-28T01:59:59.304Z,65.41
2023-04-28T02:00:59.280Z,65.41
2023-04-28T02:01:59.396Z,65.20
2023-04-28T02:02:59.393Z,65.11
2023-04-28T02:03:59.361Z,65.62
2023-04-28T02:04:59.313Z,65.20
2023-04-28T02:05:59.287Z,65.00
2023-04-28T02:06:59.244Z,65.52
2023-04-28T02:07:59.246Z,64.90
2023-04-28T02:08:59.187Z,65.72
2023-04-28T02:09:59.203Z,65.52
2023-04-28T02:10:59.172Z,65.83
2023-04-28T02:11:59.224Z,65.52
2023-04-28T02:12:59.155Z,65.52
2023-04-28T02:13:59.173Z,65.72
2023-04-28T02:14:59.143Z,65.52
2023-04-28T02:15:59.156Z,65.00
2023-04-28T02:16:59.140Z,65.20
2023-04-28T02:17:59.157Z,65.41
2023-04-28T02:18:59.097Z,65.20
2023-04-28T02:19:59.143Z,65.62
2023-04-28T02:20:59.103Z,65.28
2023-04-28T02:21:59.095Z,66.10
2023-04-28T02:22:59.053Z,64.87
2023-04-28T02:23:59.041Z,65.17
2023-04-28T02:24:59.047Z,66.20
2023-04-28T02:25:59.030Z,66.41
2023-04-28T02:26:59.034Z,65.48
2023-04-28T02:27:59.005Z,66.00
2023-04-28T02:28:59.045Z,65.48
2023-04-28T02:29:58.992Z,65.48
2023-04-28T02:30:59.010Z,65.80
2023-04-28T02:31:59.005Z,65.48
2023-04-28T02:32:58.976Z,66.31
2023-04-28T02:33:58.997Z,66.10
2023-04-28T02:34:58.927Z,66.00
2023-04-28T02:35:59.059Z,65.69
2023-04-28T02:36:58.895Z,65.80
2023-04-28T02:37:59.141Z,65.89
2023-04-28T02:38:58.897Z,65.89
2023-04-28T02:39:58.917Z,66.72
2023-04-28T02:40:58.860Z,66.20
2023-04-28T02:41:58.862Z,66.20
2023-04-28T02:42:58.866Z,66.10
2023-04-28T02:43:58.860Z,65.89
2023-04-28T02:44:58.831Z,66.51
2023-04-28T02:45:58.829Z,66.10
2023-04-28T02:46:58.892Z,66.31
2023-04-28T02:47:58.861Z,66.20
2023-04-28T02:48:58.787Z,66.51
2023-04-28T02:49:58.866Z,67.03
2023-04-28T02:50:58.770Z,67.44
2023-04-28T02:51:58.751Z,67.23
2023-04-28T02:52:58.771Z,67.33
2023-04-28T02:53:58.723Z,67.95
2023-04-28T02:54:58.737Z,67.65
2023-04-28T02:55:58.718Z,66.72
2023-04-28T02:56:58.807Z,67.03
2023-04-28T02:57:58.713Z,68.16
2023-04-28T02:58:58.681Z,67.95
2023-04-28T02:59:58.674Z,68.46
2023-04-28T03:00:58.699Z,67.95
2023-04-28T03:01:58.647Z,67.75
2023-04-28T03:02:58.928Z,67.03
2023-04-28T03:03:58.805Z,67.54
2023-04-28T03:04:58.720Z,67.44
2023-04-28T03:05:58.606Z,68.26
2023-04-28T03:06:58.620Z,68.88
2023-04-28T03:07:58.584Z,68.46
2023-04-28T03:08:58.625Z,69.09
2023-04-28T03:09:58.546Z,69.60
2023-04-28T03:10:58.580Z,70.94
2023-04-28T03:11:58.557Z,72.06
2023-04-28T03:12:58.548Z,72.68
2023-04-28T03:13:58.520Z,73.30
2023-04-28T03:14:58.529Z,72.06
2023-04-28T03:15:58.556Z,72.89
2023-04-28T03:16:58.513Z,73.91
2023-04-28T03:17:58.575Z,74.95
2023-04-28T03:18:58.470Z,74.74
2023-04-28T03:19:58.472Z,75.56
2023-04-28T03:20:58.451Z,76.38
2023-04-28T03:21:58.448Z,76.90
2023-04-28T03:22:58.464Z,77.82
2023-04-28T03:23:58.444Z,78.17
2023-04-28T03:24:58.423Z,77.96
2023-04-28T03:25:58.395Z,78.37
2023-04-28T03:26:58.397Z,78.06
2023-04-28T03:27:58.388Z,78.47
2023-04-28T03:28:58.399Z,79.81
2023-04-28T03:29:58.358Z,80.43
2023-04-28T03:30:58.341Z,80.16
2023-04-28T03:31:58.437Z,79.95
2023-04-28T03:32:58.366Z,80.88
2023-04-28T03:33:58.312Z,81.09
2023-04-28T03:34:58.309Z,81.60
2023-04-28T03:35:58.319Z,81.60
2023-04-28T03:36:58.285Z,82.01
2023-04-28T03:37:58.271Z,82.11
2023-04-28T03:38:58.301Z,82.32
2023-04-28T03:39:58.265Z,82.53
2023-04-28T03:40:58.257Z,82.83
2023-04-28T03:41:58.268Z,83.14
2023-04-28T03:42:58.242Z,83.25
2023-04-28T03:43:58.208Z,83.97
2023-04-28T03:44:58.163Z,82.97
2023-04-28T03:45:58.238Z,83.35
2023-04-28T03:46:58.189Z,83.59
2023-04-28T03:47:58.234Z,85.44
2023-04-28T03:48:58.177Z,86.06
2023-04-28T03:49:58.083Z,85.03
2023-04-28T03:50:58.131Z,85.03
2023-04-28T03:51:58.106Z,84.83
2023-04-28T03:52:58.103Z,85.65
2023-04-28T03:53:58.043Z,85.65
2023-04-28T03:54:58.062Z,85.65
2023-04-28T03:55:58.041Z,85.65
2023-04-28T03:56:58.060Z,85.55
2023-04-28T03:57:58.004Z,86.06
2023-04-28T03:58:58.011Z,86.37
2023-04-28T03:59:57.988Z,85.92
2023-04-28T04:00:58.011Z,85.96
2023-04-28T04:01:58.001Z,85.86
2023-04-28T04:02:58.150Z,85.55
2023-04-28T04:03:58.140Z,85.55
2023-04-28T04:04:58.165Z,85.34
2023-04-28T04:05:57.921Z,85.14
2023-04-28T04:06:57.953Z,84.83
2023-04-28T04:07:57.918Z,84.62
2023-04-28T04:08:57.911Z,83.90
2023-04-28T04:09:57.879Z,84.00
2023-04-28T04:10:57.885Z,84.42
2023-04-28T04:11:57.871Z,84.83
2023-04-28T04:12:57.873Z,85.24
2023-04-28T04:13:57.841Z,85.34
2023-04-28T04:14:57.885Z,85.30
2023-04-28T04:15:57.882Z,85.82
2023-04-28T04:16:57.820Z,85.30
2023-04-28T04:17:57.815Z,85.03
2023-04-28T04:18:57.782Z,85.71
2023-04-28T04:19:57.775Z,85.51
2023-04-28T04:20:57.766Z,85.30
2023-04-28T04:21:57.782Z,85.30
2023-04-28T04:22:57.764Z,84.79
2023-04-28T04:23:57.751Z,84.89
2023-04-28T04:24:57.744Z,85.10
2023-04-28T04:25:57.704Z,84.48
2023-04-28T04:26:57.705Z,84.27
2023-04-28T04:27:57.716Z,84.89
2023-04-28T04:28:57.692Z,84.79
2023-04-28T04:29:57.673Z,84.72
2023-04-28T04:30:57.682Z,84.83
2023-04-28T04:31:57.647Z,85.20
2023-04-28T04:32:57.767Z,85.51
2023-04-28T04:33:57.640Z,86.33
2023-04-28T04:34:57.639Z,86.43
2023-04-28T04:35:57.847Z,86.54
2023-04-28T04:36:57.827Z,86.33
2023-04-28T04:37:57.636Z,86.02
2023-04-28T04:38:57.576Z,86.13
2023-04-28T04:39:57.603Z,86.02
2023-04-28T04:40:57.568Z,86.74
2023-04-28T04:41:57.550Z,86.64
2023-04-28T04:42:57.535Z,86.33
2023-04-28T04:43:57.566Z,86.54
2023-04-28T04:44:57.514Z,86.85
2023-04-28T04:45:57.496Z,86.33
2023-04-28T04:46:57.544Z,86.74
2023-04-28T04:47:57.516Z,86.74
2023-04-28T04:48:57.511Z,86.95
2023-04-28T04:49:57.469Z,87.05
2023-04-28T04:50:57.463Z,87.46
2023-04-28T04:51:57.441Z,87.46
2023-04-28T04:52:57.451Z,87.46
2023-04-28T04:53:57.432Z,87.36
2023-04-28T04:54:57.437Z,87.46
2023-04-28T04:55:57.406Z,87.87
2023-04-28T04:56:57.388Z,87.77
2023-04-28T04:57:57.390Z,87.98
2023-04-28T04:58:57.376Z,87.01
2023-04-28T04:59:57.377Z,87.12
2023-04-28T05:00:57.370Z,87.32
2023-04-28T05:01:57.450Z,87.42
2023-04-28T05:02:57.414Z,87.42
2023-04-28T05:03:57.574Z,87.73
2023-04-28T05:05:08.173Z,87.12
2023-04-28T05:05:57.300Z,87.12
2023-04-28T05:06:57.299Z,87.32
2023-04-28T05:07:57.284Z,87.22
2023-04-28T05:08:57.320Z,86.70
2023-04-28T05:09:57.250Z,86.66
2023-04-28T05:10:57.289Z,86.87
2023-04-28T05:11:57.235Z,86.77
2023-04-28T05:12:57.260Z,86.56
2023-04-28T05:13:57.220Z,86.46
2023-04-28T05:14:57.246Z,86.46
2023-04-28T05:15:57.189Z,86.66
2023-04-28T05:16:57.302Z,86.97
2023-04-28T05:17:57.225Z,86.97
2023-04-28T05:18:57.177Z,87.07
2023-04-28T05:19:57.142Z,86.35
2023-04-28T05:20:57.350Z,86.35
2023-04-28T05:21:57.227Z,86.56
2023-04-28T05:22:57.216Z,86.77
2023-04-28T05:23:57.483Z,86.35
2023-04-28T05:24:57.211Z,86.35
2023-04-28T05:25:57.136Z,86.46
2023-04-28T05:26:57.164Z,86.35
2023-04-28T05:27:57.057Z,86.66
2023-04-28T05:28:57.077Z,86.87
2023-04-28T05:29:57.063Z,86.72
2023-04-28T05:30:57.061Z,86.93
2023-04-28T05:31:57.032Z,87.34
2023-04-28T05:32:57.053Z,87.34
2023-04-28T05:33:57.030Z,87.13
2023-04-28T05:34:57.008Z,87.34
2023-04-28T05:35:56.986Z,87.55
2023-04-28T05:36:56.976Z,87.65
2023-04-28T05:37:56.962Z,87.55
2023-04-28T05:38:56.955Z,87.65
2023-04-28T05:39:56.954Z,88.12
2023-04-28T05:40:56.954Z,87.65
2023-04-28T05:41:56.947Z,87.30
2023-04-28T05:42:56.918Z,87.61
2023-04-28T05:43:56.892Z,87.51
2023-04-28T05:44:56.890Z,87.51
2023-04-28T05:45:56.958Z,87.51
2023-04-28T05:46:57.059Z,87.51
2023-04-28T05:47:56.866Z,87.40
2023-04-28T05:48:56.868Z,87.20
2023-04-28T05:49:56.837Z,87.20
2023-04-28T05:50:56.828Z,87.10
2023-04-28T05:51:56.798Z,87.20
2023-04-28T05:52:56.819Z,87.40
2023-04-28T05:53:56.785Z,87.30
2023-04-28T05:54:56.794Z,87.30
2023-04-28T05:55:56.810Z,87.10
2023-04-28T05:56:56.774Z,86.99
2023-04-28T05:57:56.780Z,87.77
2023-04-28T05:58:56.735Z,87.98
2023-04-28T05:59:56.762Z,87.57
2023-04-28T06:00:56.731Z,87.67
2023-04-28T06:01:56.731Z,87.67
2023-04-28T06:02:56.824Z,87.46
2023-04-28T06:03:56.922Z,87.53
2023-04-28T06:04:57.104Z,87.73
2023-04-28T06:05:56.776Z,87.63
2023-04-28T06:06:56.665Z,87.43
2023-04-28T06:07:56.757Z,87.84
2023-04-28T06:08:56.658Z,87.84
2023-04-28T06:09:56.612Z,87.43
2023-04-28T06:10:56.672Z,87.73
2023-04-28T06:11:56.607Z,87.70
2023-04-28T06:12:56.689Z,87.28
2023-04-28T06:13:56.569Z,87.70
2023-04-28T06:14:56.594Z,88.10
2023-04-28T06:15:56.689Z,88.31
2023-04-28T06:16:56.589Z,87.49
2023-04-28T06:17:56.615Z,87.96
2023-04-28T06:18:56.543Z,87.85
2023-04-28T06:19:56.506Z,87.96
2023-04-28T06:20:56.507Z,88.37
2023-04-28T06:21:56.523Z,87.61
2023-04-28T06:22:56.489Z,88.02
2023-04-28T06:23:56.490Z,87.92
2023-04-28T06:24:56.502Z,87.61
2023-04-28T06:25:56.469Z,88.02
2023-04-28T06:26:56.469Z,88.02
2023-04-28T06:27:56.425Z,87.51
2023-04-28T06:28:56.451Z,87.61
2023-04-28T06:29:56.417Z,87.71
2023-04-28T06:30:56.553Z,87.57
2023-04-28T06:31:56.401Z,87.37
2023-04-28T06:32:56.441Z,87.16
2023-04-28T06:33:56.365Z,86.65
2023-04-28T06:34:58.409Z,86.65
2023-04-28T06:35:56.373Z,86.65
2023-04-28T06:36:56.372Z,86.44
2023-04-28T06:37:56.336Z,86.75
2023-04-28T06:38:56.309Z,86.81
2023-04-28T06:39:56.301Z,87.02
2023-04-28T06:40:56.323Z,85.69
2023-04-28T06:41:56.304Z,85.28
2023-04-28T06:42:56.285Z,86.30
2023-04-28T06:43:56.284Z,85.96
2023-04-28T06:44:56.258Z,85.64
2023-04-28T06:45:56.254Z,85.55
2023-04-28T06:46:56.348Z,85.55
2023-04-28T06:47:56.373Z,85.24
2023-04-28T06:48:56.255Z,85.10
2023-04-28T06:49:56.211Z,84.28
2023-04-28T06:50:56.199Z,84.17
2023-04-28T06:51:56.198Z,84.07
2023-04-28T06:52:56.183Z,83.52
2023-04-28T06:53:56.160Z,83.62
2023-04-28T06:54:56.164Z,83.62
2023-04-28T06:55:56.149Z,84.34
2023-04-28T06:56:56.138Z,84.41
2023-04-28T06:57:56.139Z,83.69
2023-04-28T06:58:56.105Z,84.30
2023-04-28T06:59:56.107Z,83.48
2023-04-28T07:00:56.127Z,84.30
2023-04-28T07:01:56.160Z,84.00
2023-04-28T07:02:56.284Z,83.48
2023-04-28T07:03:56.229Z,83.73
2023-04-28T07:04:56.048Z,83.83
2023-04-28T07:05:56.046Z,84.44
2023-04-28T07:06:56.031Z,84.79
2023-04-28T07:07:56.048Z,84.48
2023-04-28T07:08:56.009Z,85.34
2023-04-28T07:09:56.018Z,86.36
2023-04-28T07:10:55.983Z,86.16
2023-04-28T07:11:55.977Z,86.51
2023-04-28T07:12:55.971Z,86.51
2023-04-28T07:13:56.004Z,86.91
2023-04-28T07:14:56.095Z,87.32
2023-04-28T07:15:55.947Z,87.32
2023-04-28T07:16:55.951Z,87.43
2023-04-28T07:17:56.050Z,87.88
2023-04-28T07:18:55.909Z,88.08
2023-04-28T07:19:55.905Z,88.29
2023-04-28T07:20:55.864Z,88.49
2023-04-28T07:21:55.871Z,88.80
2023-04-28T07:22:55.856Z,89.11
2023-04-28T07:23:55.864Z,89.11
2023-04-28T07:24:55.840Z,89.00
2023-04-28T07:25:55.830Z,89.06
2023-04-28T07:26:55.938Z,89.27
2023-04-28T07:27:55.873Z,89.17
2023-04-28T07:28:55.821Z,89.21
2023-04-28T07:29:55.807Z,89.21
2023-04-28T07:30:55.786Z,89.27
2023-04-28T07:31:55.805Z,89.51
2023-04-28T07:32:55.880Z,89.47
2023-04-28T07:33:55.750Z,89.58
2023-04-28T07:34:55.759Z,90.03
2023-04-28T07:35:55.718Z,90.09
2023-04-28T07:36:55.703Z,90.39
2023-04-28T07:37:55.751Z,90.50
2023-04-28T07:38:55.677Z,90.81
2023-04-28T07:39:55.737Z,91.22
2023-04-28T07:40:55.686Z,91.11
2023-04-28T07:41:55.666Z,91.42
2023-04-28T07:42:55.889Z,91.52
2023-04-28T07:43:55.623Z,91.52
2023-04-28T07:44:55.631Z,91.93
2023-04-28T07:45:55.682Z,92.24
2023-04-28T07:46:55.594Z,92.03
2023-04-28T07:47:55.785Z,92.34
2023-04-28T07:48:55.581Z,92.44
2023-04-28T07:49:55.573Z,93.16
2023-04-28T07:50:55.581Z,93.30
2023-04-28T07:51:55.549Z,93.41
2023-04-28T07:52:55.553Z,93.82
2023-04-28T07:53:55.553Z,94.02
2023-04-28T07:54:55.532Z,94.54
2023-04-28T07:55:55.541Z,94.95
2023-04-28T07:56:55.530Z,95.41
2023-04-28T07:57:55.495Z,95.92
2023-04-28T07:58:55.485Z,96.23
2023-04-28T07:59:55.529Z,96.13
2023-04-28T08:00:55.565Z,96.79
2023-04-28T08:01:55.541Z,96.95
2023-04-28T08:02:55.692Z,97.71
2023-04-28T08:03:55.658Z,97.97
2023-04-28T08:04:55.582Z,97.56
2023-04-28T08:05:55.735Z,97.66
2023-04-28T08:06:55.410Z,97.46
2023-04-28T08:07:55.399Z,97.52
2023-04-28T08:08:55.383Z,98.03
2023-04-28T08:09:55.404Z,98.19
2023-04-28T08:10:55.382Z,97.78
2023-04-28T08:11:55.384Z,97.47
2023-04-28T08:12:55.348Z,97.37
2023-04-28T08:13:55.338Z,96.61
2023-04-28T08:14:55.340Z,95.64
2023-04-28T08:15:55.334Z,95.54
2023-04-28T08:16:55.319Z,94.98
2023-04-28T08:17:55.315Z,94.48
2023-04-28T08:18:55.417Z,94.94
2023-04-28T08:19:55.251Z,94.08
2023-04-28T08:20:55.255Z,94.59
2023-04-28T08:21:55.249Z,92.41
2023-04-28T08:22:55.245Z,92.91
2023-04-28T08:23:55.265Z,92.57
2023-04-28T08:24:55.201Z,92.77
2023-04-28T08:25:55.195Z,93.03
2023-04-28T08:26:55.178Z,90.89
2023-04-28T08:27:56.519Z,91.66
2023-04-28T08:28:55.198Z,91.46
2023-04-28T08:29:55.169Z,90.85
2023-04-28T08:30:55.120Z,90.20
2023-04-28T08:31:55.203Z,89.79
2023-04-28T08:32:55.114Z,89.69
2023-04-28T08:33:55.764Z,88.67
2023-04-28T08:34:55.107Z,88.98
2023-04-28T08:35:55.092Z,89.79
2023-04-28T08:36:55.150Z,89.94
2023-04-28T08:37:55.085Z,88.92
2023-04-28T08:38:55.107Z,90.34
2023-04-28T08:39:55.094Z,92.27
2023-04-28T08:40:55.062Z,91.87
2023-04-28T08:41:55.058Z,90.34
2023-04-28T08:42:55.030Z,91.05
2023-04-28T08:43:55.100Z,89.97
2023-04-28T08:44:55.078Z,90.59
2023-04-28T08:45:55.105Z,92.01
2023-04-28T08:46:55.179Z,91.61
2023-04-28T08:47:55.079Z,91.71
2023-04-28T08:48:54.971Z,90.38
2023-04-28T08:49:55.149Z,91.61
2023-04-28T08:50:55.210Z,91.71
2023-04-28T08:51:54.982Z,92.01
2023-04-28T08:52:54.997Z,92.22
2023-04-28T08:54:54.916Z,91.87
2023-04-28T08:55:54.963Z,91.46
2023-04-28T08:56:55.022Z,91.01
2023-04-28T08:57:55.032Z,91.07
2023-04-28T08:58:54.932Z,89.14
2023-04-28T08:59:54.960Z,88.08
2023-04-28T09:00:55.093Z,88.54
2023-04-28T09:01:55.270Z,87.99
2023-04-28T09:02:55.011Z,86.16
2023-04-28T09:03:54.992Z,85.76
2023-04-28T09:04:54.943Z,86.53
2023-04-28T09:05:54.785Z,86.74
2023-04-28T09:06:54.817Z,87.29
2023-04-28T09:07:54.787Z,85.05
2023-04-28T09:08:54.719Z,86.57
2023-04-28T09:09:54.750Z,85.35
2023-04-28T09:10:54.805Z,85.09
2023-04-28T09:11:54.695Z,85.49
2023-04-28T09:12:54.699Z,87.53
2023-04-28T09:13:54.727Z,88.44
2023-04-28T09:14:54.674Z,86.96
2023-04-28T09:15:54.705Z,88.39
2023-04-28T09:16:54.718Z,87.67
2023-04-28T09:17:54.732Z,88.04
2023-04-28T09:18:54.619Z,87.16
2023-04-28T09:19:54.619Z,87.98
2023-04-28T09:20:54.619Z,87.98
2023-04-28T09:21:54.700Z,88.24
2023-04-28T09:22:54.647Z,87.38
2023-04-28T09:23:54.597Z,87.65
2023-04-28T09:24:54.562Z,84.40
2023-04-28T09:25:54.578Z,85.47
2023-04-28T09:26:55.796Z,84.46
2023-04-28T09:27:54.538Z,84.66
2023-04-28T09:28:54.515Z,86.39
2023-04-28T09:29:54.571Z,83.75
2023-04-28T09:30:54.541Z,83.45
2023-04-28T09:31:54.545Z,85.98
2023-04-28T09:32:54.515Z,84.40
2023-04-28T09:33:54.480Z,86.43
2023-04-28T09:34:54.481Z,84.66
2023-04-28T09:35:54.493Z,85.13
2023-04-28T09:36:54.446Z,84.32
2023-04-28T09:37:54.461Z,82.94
2023-04-28T09:38:55.820Z,84.42
2023-04-28T09:39:54.470Z,84.69
2023-04-28T09:40:54.418Z,82.31
2023-04-28T09:41:54.425Z,82.98
2023-04-28T09:42:54.412Z,80.15
2023-04-28T09:43:54.396Z,79.74
2023-04-28T09:44:54.351Z,79.94
2023-04-28T09:45:54.390Z,81.67
2023-04-28T09:46:54.348Z,80.45
2023-04-28T09:47:54.358Z,79.13
2023-04-28T09:48:54.370Z,80.27
2023-04-28T09:49:54.326Z,79.02
2023-04-28T09:50:54.301Z,77.87
2023-04-28T09:51:54.325Z,76.52
2023-04-28T09:52:54.270Z,73.99
2023-04-28T09:53:54.306Z,74.10
2023-04-28T09:54:54.260Z,73.69
2023-04-28T09:55:54.251Z,74.80
2023-04-28T09:56:54.270Z,75.01
2023-04-28T09:57:54.259Z,75.21
2023-04-28T09:58:54.220Z,76.62
2023-04-28T09:59:54.216Z,78.85
2023-04-28T10:00:54.241Z,75.61
2023-04-28T10:01:54.266Z,74.80
2023-04-28T10:02:54.363Z,75.51
2023-04-28T10:03:54.326Z,75.92
2023-04-28T10:04:54.291Z,75.10
2023-04-28T10:05:54.140Z,75.92
2023-04-28T10:06:54.138Z,78.58
2023-04-28T10:07:54.139Z,75.65
2023-04-28T10:08:54.093Z,75.85
2023-04-28T10:09:54.143Z,77.06
2023-04-28T10:10:54.086Z,75.61
2023-04-28T10:11:54.091Z,76.32
2023-04-28T10:12:54.069Z,75.27
2023-04-28T10:13:54.102Z,74.37
2023-04-28T10:14:54.061Z,75.07
2023-04-28T10:15:54.068Z,73.99
2023-04-28T10:16:54.029Z,76.90
2023-04-28T10:17:54.083Z,78.05
2023-04-28T10:18:54.020Z,77.88
2023-04-28T10:19:53.988Z,78.59
2023-04-28T10:20:53.992Z,79.13
2023-04-28T10:21:54.015Z,80.29
2023-04-28T10:22:53.956Z,81.37
2023-04-28T10:23:53.973Z,82.38
2023-04-28T10:24:53.997Z,81.16
2023-04-28T10:25:53.968Z,79.13
2023-04-28T10:26:53.960Z,80.25
2023-04-28T10:27:53.920Z,80.76
2023-04-28T10:28:53.952Z,80.11
2023-04-28T10:29:53.896Z,78.86
2023-04-28T10:30:53.948Z,79.36
2023-04-28T10:31:53.885Z,79.63
2023-04-28T10:32:53.931Z,77.44
2023-04-28T10:33:53.870Z,79.53
2023-04-28T10:34:53.850Z,79.16
2023-04-28T10:35:53.832Z,79.77
2023-04-28T10:36:53.831Z,79.30
2023-04-28T10:37:53.835Z,79.60
2023-04-28T10:38:53.883Z,80.82
2023-04-28T10:39:53.881Z,79.34
2023-04-28T10:40:53.953Z,80.25
2023-04-28T10:41:53.777Z,80.18
2023-04-28T10:42:53.793Z,79.55
2023-04-28T10:43:53.744Z,77.36
2023-04-28T10:44:53.726Z,75.51
2023-04-28T10:45:56.869Z,77.12
2023-04-28T10:46:53.778Z,75.37
2023-04-28T10:47:53.769Z,73.88
2023-04-28T10:48:53.698Z,73.28
2023-04-28T10:49:53.836Z,72.74
2023-04-28T10:50:53.687Z,71.91
2023-04-28T10:51:53.673Z,69.96
2023-04-28T10:52:53.766Z,69.89
2023-04-28T10:53:53.680Z,66.91
2023-04-28T10:54:53.688Z,65.47
2023-04-28T10:55:53.637Z,64.61
2023-04-28T10:56:53.658Z,64.88
2023-04-28T10:57:53.616Z,63.07
2023-04-28T10:58:53.693Z,62.47
2023-04-28T10:59:53.663Z,65.41
2023-04-28T11:00:53.718Z,64.54
2023-04-28T11:01:53.627Z,65.27
2023-04-28T11:02:53.756Z,64.17
2023-04-28T11:03:53.693Z,67.28
2023-04-28T11:04:53.765Z,64.31
2023-04-28T11:05:53.520Z,63.31
2023-04-28T11:06:53.530Z,63.43
2023-04-28T11:07:53.978Z,64.57
2023-04-28T11:08:53.482Z,64.57
2023-04-28T11:09:53.533Z,63.56
2023-04-28T11:10:53.459Z,63.90
2023-04-28T11:11:53.479Z,65.44
2023-04-28T11:12:53.467Z,65.94
2023-04-28T11:13:53.530Z,64.37
2023-04-28T11:14:53.455Z,64.50
2023-04-28T11:15:53.458Z,66.03
2023-04-28T11:16:53.626Z,67.78
2023-04-28T11:17:53.504Z,68.11
2023-04-28T11:18:55.427Z,68.98
2023-04-28T11:19:53.417Z,67.44
2023-04-28T11:20:53.381Z,67.85
2023-04-28T11:21:53.355Z,66.11
2023-04-28T11:22:53.358Z,65.30
2023-04-28T11:23:53.485Z,65.94
2023-04-28T11:24:54.074Z,65.30
2023-04-28T11:25:53.326Z,68.62
2023-04-28T11:26:53.303Z,67.38
2023-04-28T11:27:53.319Z,65.94
2023-04-28T11:28:53.430Z,67.27
2023-04-28T11:29:53.451Z,67.31
2023-04-28T11:30:54.278Z,67.74
2023-04-28T11:31:53.394Z,69.79
2023-04-28T11:32:53.330Z,70.93
2023-04-28T11:33:53.255Z,70.46
2023-04-28T11:34:53.243Z,72.71
2023-04-28T11:35:53.195Z,72.81
2023-04-28T11:36:54.640Z,72.64
2023-04-28T11:37:53.184Z,73.35
2023-04-28T11:38:53.210Z,72.85
2023-04-28T11:39:53.213Z,74.56
2023-04-28T11:40:53.175Z,74.26
2023-04-28T11:41:53.141Z,72.85
2023-04-28T11:42:53.140Z,72.95
2023-04-28T11:43:53.123Z,74.16
2023-04-28T11:44:53.180Z,74.43
2023-04-28T11:45:53.169Z,74.99
2023-04-28T11:46:53.098Z,74.59
2023-04-28T11:47:53.195Z,73.05
2023-04-28T11:48:53.054Z,71.77
2023-04-28T11:49:53.063Z,72.88
2023-04-28T11:50:53.094Z,72.67
2023-04-28T11:51:53.046Z,73.82
2023-04-28T11:52:53.710Z,74.29
2023-04-28T11:53:52.997Z,74.02
2023-04-28T11:54:53.013Z,74.93
2023-04-28T11:55:53.010Z,74.52
2023-04-28T11:56:52.982Z,74.73
2023-04-28T11:57:53.097Z,76.24
2023-04-28T11:58:52.995Z,74.99
2023-04-28T11:59:52.942Z,75.06
2023-04-28T12:00:52.941Z,73.85
2023-04-28T12:01:52.967Z,74.62
2023-04-28T12:02:53.093Z,74.32
2023-04-28T12:03:52.980Z,75.15
2023-04-28T12:04:52.931Z,73.21
2023-04-28T12:05:52.917Z,71.90
2023-04-28T12:06:52.874Z,71.26
2023-04-28T12:07:53.166Z,71.33
2023-04-28T12:08:52.937Z,69.32
2023-04-28T12:09:52.844Z,69.53
2023-04-28T12:10:52.846Z,67.65
2023-04-28T12:11:52.824Z,67.25
2023-04-28T12:12:53.495Z,67.52
2023-04-28T12:13:52.817Z,68.05
2023-04-28T12:14:52.828Z,70.12
2023-04-28T12:15:52.839Z,70.53
2023-04-28T12:16:52.786Z,73.32
2023-04-28T12:17:53.058Z,75.06
2023-04-28T12:18:52.761Z,75.60
2023-04-28T12:19:52.737Z,75.70
2023-04-28T12:20:52.752Z,76.10
2023-04-28T12:21:52.723Z,77.01
2023-04-28T12:22:52.781Z,77.11
2023-04-28T12:23:52.696Z,78.22
2023-04-28T12:24:52.715Z,76.40
2023-04-28T12:25:52.686Z,77.04
2023-04-28T12:26:52.673Z,77.99
2023-04-28T12:27:52.677Z,79.14
2023-04-28T12:28:52.725Z,80.90
2023-04-28T12:29:52.675Z,81.13
2023-04-28T12:30:53.010Z,82.18
2023-04-28T12:31:52.636Z,84.51
2023-04-28T12:32:52.655Z,84.71
2023-04-28T12:33:52.595Z,84.85
2023-04-28T12:34:52.646Z,85.50
2023-04-28T12:35:52.596Z,86.85
2023-04-28T12:36:52.568Z,87.66
2023-04-28T12:37:52.559Z,88.07
2023-04-28T12:38:52.580Z,88.98
2023-04-28T12:39:52.539Z,88.84
2023-04-28T12:40:52.554Z,88.84
2023-04-28T12:41:52.531Z,87.12
2023-04-28T12:42:52.507Z,87.93
2023-04-28T12:43:52.512Z,88.19
2023-04-28T12:44:52.515Z,87.32
2023-04-28T12:45:52.523Z,87.42
2023-04-28T12:46:52.491Z,88.13
2023-04-28T12:47:52.465Z,88.13
2023-04-28T12:48:52.455Z,88.78
2023-04-28T12:49:52.451Z,89.89
2023-04-28T12:50:52.460Z,89.59
2023-04-28T12:51:52.509Z,90.30
2023-04-28T12:52:52.413Z,89.63